Time;durP1;ratioP1;P1;durP2;ratioP2;P2;SDS_P1;SDS_P2;PMS_P1;PMS_P2;Temp;Humidity;BMP_temperature;BMP_pressure;BME280_temperature;BME280_humidity;BME280_pressure;Samples;Min_cycle;Max_cycle;Signal;HPM_P1;HPM_P2
2022/12/19 00:01:44;;;;;;;34.35;20.35;;;1.50;99.90;;;;;;4936413;29;20062;-75
2022/12/19 00:04:14;;;;;;;36.65;20.70;;;1.00;99.90;;;;;;4937150;29;20399;-75
2022/12/19 00:06:40;;;;;;;42.20;23.85;;;1.80;99.90;;;;;;4935655;29;20543;-76
2022/12/19 00:09:06;;;;;;;30.33;17.00;;;1.10;99.90;;;;;;4919365;29;20126;-76
2022/12/19 00:11:32;;;;;;;34.53;14.85;;;1.50;99.90;;;;;;4920790;29;20135;-76
2022/12/19 00:13:58;;;;;;;36.78;21.00;;;1.10;99.90;;;;;;4936283;29;20374;-77
2022/12/19 00:16:26;;;;;;;34.63;18.90;;;1.20;99.90;;;;;;4935797;29;20400;-77
2022/12/19 00:18:54;;;;;;;37.25;22.40;;;1.20;99.90;;;;;;4920329;29;20503;-77
2022/12/19 00:21:22;;;;;;;33.58;18.58;;;1.50;99.90;;;;;;4904613;29;20050;-75
2022/12/19 00:23:48;;;;;;;35.63;18.48;;;1.20;99.90;;;;;;4903628;29;20083;-77
2022/12/19 00:26:21;;;;;;;31.48;18.35;;;1.40;99.90;;;;;;4920073;29;20091;-77
2022/12/19 00:28:54;;;;;;;33.25;18.02;;;1.10;99.90;;;;;;4920002;29;20052;-76
2022/12/19 00:31:21;;;;;;;33.22;19.30;;;1.50;99.90;;;;;;4919787;29;20052;-77
2022/12/19 00:33:48;;;;;;;33.13;18.13;;;1.20;99.90;;;;;;4904355;29;20062;-76
2022/12/19 00:36:17;;;;;;;39.50;23.52;;;1.20;99.90;;;;;;4919643;29;20052;-77
2022/12/19 00:38:43;;;;;;;32.95;17.55;;;1.20;99.90;;;;;;4919287;29;20098;-76
2022/12/19 00:41:33;;;;;;;24.70;11.63;;;1.20;99.90;;;;;;4919916;29;20131;-76
2022/12/19 00:44:05;;;;;;;21.40;10.50;;;1.30;99.90;;;;;;4903630;29;20059;-75
2022/12/19 00:46:32;;;;;;;35.13;20.60;;;1.30;99.90;;;;;;4917314;29;20118;-76
2022/12/19 00:48:58;;;;;;;35.88;20.83;;;1.30;99.90;;;;;;4885407;29;20083;-77
2022/12/19 00:51:26;;;;;;;35.08;18.60;;;1.20;99.90;;;;;;4927943;29;20055;-76
2022/12/19 00:53:54;;;;;;;38.72;21.83;;;1.20;99.90;;;;;;4918625;29;20075;-76
2022/12/19 00:56:23;;;;;;;39.22;22.27;;;1.30;99.90;;;;;;4919936;29;20102;-77
2022/12/19 00:58:49;;;;;;;26.75;15.25;;;1.20;99.90;;;;;;4918760;29;20110;-76
2022/12/19 01:01:17;;;;;;;34.70;20.67;;;1.20;99.90;;;;;;4919634;29;20480;-77
2022/12/19 01:03:43;;;;;;;26.50;13.25;;;1.30;99.90;;;;;;4919209;29;20055;-76
2022/12/19 01:06:09;;;;;;;38.90;23.45;;;1.50;99.90;;;;;;4919207;29;20051;-77
2022/12/19 01:08:35;;;;;;;35.63;20.35;;;1.30;99.90;;;;;;4918647;29;20059;-76
2022/12/19 01:11:02;;;;;;;40.65;22.80;;;1.50;99.90;;;;;;4915603;29;20048;-76
2022/12/19 01:13:30;;;;;;;39.80;22.38;;;2.20;99.90;;;;;;4910586;29;20055;-75
2022/12/19 01:16:00;;;;;;;39.80;24.58;;;1.70;99.90;;;;;;4918261;29;20055;-76
2022/12/19 01:18:26;;;;;;;37.05;20.80;;;1.60;99.90;;;;;;4933796;29;20126;-75
2022/12/19 01:20:52;;;;;;;40.58;24.65;;;1.30;99.90;;;;;;4935897;29;20505;-76
2022/12/19 01:23:17;;;;;;;41.45;24.13;;;2.20;99.90;;;;;;4934131;29;20056;-77
2022/12/19 01:25:51;;;;;;;39.55;22.25;;;1.30;99.90;;;;;;4935155;29;20102;-75
2022/12/19 01:28:17;;;;;;;42.55;24.38;;;1.40;99.90;;;;;;4948800;29;20051;-76
2022/12/19 01:30:43;;;;;;;40.53;22.50;;;2.60;99.90;;;;;;4935314;29;20047;-76
2022/12/19 01:33:13;;;;;;;42.00;24.77;;;1.40;99.90;;;;;;4918387;29;20050;-75
2022/12/19 01:35:40;;;;;;;30.60;16.70;;;1.40;99.90;;;;;;4919342;29;20040;-76
2022/12/19 01:38:06;;;;;;;40.90;23.60;;;1.50;99.90;;;;;;4934037;29;20054;-77
2022/12/19 01:40:33;;;;;;;34.30;18.30;;;1.40;99.90;;;;;;4934992;29;20472;-77
2022/12/19 01:43:00;;;;;;;41.83;25.65;;;1.60;99.90;;;;;;4918928;29;20134;-75
2022/12/19 01:45:29;;;;;;;31.67;16.10;;;1.50;99.90;;;;;;4931800;29;20392;-75
2022/12/19 01:48:34;;;;;;;28.17;15.93;;;1.50;99.90;;;;;;4925605;29;20058;-75
2022/12/19 01:51:13;;;;;;;38.35;22.70;;;1.60;99.90;;;;;;4934991;29;20102;-73
2022/12/19 01:53:53;;;;;;;40.08;23.48;;;1.50;99.90;;;;;;4918108;29;20051;-75
2022/12/19 01:56:23;;;;;;;28.83;14.65;;;2.70;99.90;;;;;;4934952;29;20052;-75
2022/12/19 01:58:51;;;;;;;38.80;19.30;;;1.50;99.90;;;;;;4934050;29;20480;-77
2022/12/19 02:01:17;;;;;;;41.67;22.15;;;1.50;99.90;;;;;;4934648;29;20489;-76
2022/12/19 02:03:44;;;;;;;44.25;27.08;;;1.60;99.90;;;;;;4934126;29;20047;-77
2022/12/19 02:06:12;;;;;;;43.85;22.35;;;1.50;99.90;;;;;;4934290;29;20087;-76
2022/12/19 02:08:38;;;;;;;44.50;25.65;;;2.50;99.90;;;;;;4933822;29;20043;-75
2022/12/19 02:11:04;;;;;;;46.08;26.23;;;1.60;99.90;;;;;;4933831;29;20043;-77
2022/12/19 02:13:30;;;;;;;42.05;24.00;;;1.50;99.90;;;;;;4934224;29;20039;-75
2022/12/19 02:16:17;;;;;;;40.42;20.70;;;1.60;99.90;;;;;;4934284;29;20055;-74
2022/12/19 02:19:08;;;;;;;41.63;21.25;;;1.60;99.90;;;;;;4934726;29;20055;-74
2022/12/19 02:22:02;;;;;;;43.15;25.23;;;1.70;99.90;;;;;;4918202;29;20378;-75
2022/12/19 02:25:09;;;;;;;44.63;26.17;;;1.60;99.90;;;;;;4934435;29;20090;-75
2022/12/19 02:27:41;;;;;;;37.92;19.83;;;1.70;99.90;;;;;;4919954;29;20059;-75
2022/12/19 02:30:31;;;;;;;22.20;11.68;;;1.70;99.90;;;;;;4925351;29;20452;-76
2022/12/19 02:33:07;;;;;;;41.05;23.50;;;1.80;99.90;;;;;;4934010;29;20114;-75
2022/12/19 02:35:38;;;;;;;38.85;19.83;;;1.70;99.90;;;;;;4932124;29;20126;-77
2022/12/19 02:38:35;;;;;;;45.67;26.33;;;1.80;99.90;;;;;;4922662;29;20048;-75
2022/12/19 02:41:09;;;;;;;37.08;19.50;;;1.70;99.90;;;;;;4922389;29;20127;-75
2022/12/19 02:43:40;;;;;;;56.95;30.30;;;1.80;99.90;;;;;;4921481;29;20058;-76
2022/12/19 02:46:08;;;;;;;53.17;28.52;;;1.70;99.90;;;;;;4938089;29;20058;-74
2022/12/19 02:48:34;;;;;;;55.85;30.50;;;1.70;99.90;;;;;;4921569;29;20051;-77
2022/12/19 02:51:00;;;;;;;57.33;31.63;;;1.70;99.90;;;;;;4937982;29;20048;-76
2022/12/19 02:53:25;;;;;;;55.83;30.05;;;2.20;99.90;;;;;;4917874;29;20044;-76
2022/12/19 02:56:16;;;;;;;62.28;32.65;;;2.40;99.90;;;;;;4934311;29;20048;-77
2022/12/19 02:59:11;;;;;;;54.63;28.92;;;1.60;99.90;;;;;;4932861;29;20400;-76
2022/12/19 03:02:04;;;;;;;57.72;27.95;;;1.80;99.90;;;;;;4907328;29;20059;-77
2022/12/19 03:04:34;;;;;;;;;;;1.70;99.90;;;;;;4926152;29;20391;-76
2022/12/19 03:07:17;;;;;;;47.60;23.83;;;1.80;99.90;;;;;;4936580;29;19946;-77
2022/12/19 03:09:51;;;;;;;64.45;32.17;;;1.80;99.90;;;;;;4910546;29;20471;-76
2022/12/19 03:12:35;;;;;;;48.83;22.90;;;2.40;99.90;;;;;;4937389;29;20055;-77
2022/12/19 03:15:01;;;;;;;45.20;21.73;;;1.80;99.90;;;;;;4937799;29;20055;-74
2022/12/19 03:17:27;;;;;;;54.83;28.42;;;2.00;99.90;;;;;;4936888;29;20164;-75
2022/12/19 03:19:54;;;;;;;67.43;32.95;;;1.90;99.90;;;;;;4917281;29;20048;-78
2022/12/19 03:22:20;;;;;;;59.28;29.85;;;1.90;99.90;;;;;;4920249;29;20403;-76
2022/12/19 03:24:46;;;;;;;59.20;28.35;;;1.90;99.90;;;;;;4921229;29;20044;-75
2022/12/19 03:27:22;;;;;;;66.47;34.33;;;1.90;99.90;;;;;;4936917;29;20476;-77
2022/12/19 03:29:59;;;;;;;62.25;30.48;;;1.90;99.90;;;;;;4920221;29;20048;-76
2022/12/19 03:32:27;;;;;;;70.88;34.67;;;1.90;99.90;;;;;;4949716;29;20484;-75
2022/12/19 03:35:01;;;;;;;69.03;33.65;;;2.80;99.90;;;;;;4921491;29;20115;-76
2022/12/19 03:37:30;;;;;;;71.95;34.63;;;2.00;99.90;;;;;;4935157;29;20115;-75
2022/12/19 03:40:01;;;;;;;78.53;37.72;;;2.00;99.90;;;;;;4937057;29;20044;-76
2022/12/19 03:45:22;;;;;;;57.78;27.33;;;2.00;99.90;;;;;;4936982;29;20051;-75
2022/12/19 03:47:53;;;;;;;83.18;39.55;;;2.20;99.90;;;;;;4930145;29;20075;-75
2022/12/19 03:50:19;;;;;;;53.78;26.10;;;3.00;99.90;;;;;;4948796;29;20051;-74
2022/12/19 03:53:19;;;;;;;86.10;40.35;;;2.30;99.90;;;;;;4921436;29;20048;-76
2022/12/19 03:55:56;;;;;;;84.90;39.33;;;2.20;99.90;;;;;;4936599;29;20496;-75
2022/12/19 03:58:37;;;;;;;93.00;41.63;;;2.80;99.90;;;;;;4920865;29;20047;-77
2022/12/19 04:01:04;;;;;;;98.25;44.05;;;2.20;99.90;;;;;;4920568;29;20488;-74
2022/12/19 04:03:30;;;;;;;60.88;29.30;;;2.20;99.90;;;;;;4920543;29;20054;-75
2022/12/19 04:05:59;;;;;;;81.25;37.97;;;2.30;99.90;;;;;;4920696;29;20150;-75
2022/12/19 04:08:26;;;;;;;52.15;25.77;;;2.70;99.90;;;;;;4935842;29;20130;-75
2022/12/19 04:11:06;;;;;;;79.07;38.20;;;2.40;99.90;;;;;;4936145;29;20055;-76
2022/12/19 04:13:37;;;;;;;65.22;30.13;;;2.40;99.90;;;;;;4905459;29;20477;-76
2022/12/19 04:16:27;;;;;;;94.85;45.83;;;2.40;99.90;;;;;;4930906;29;20052;-76
2022/12/19 04:19:00;;;;;;;95.68;43.88;;;2.50;99.90;;;;;;4906538;29;20052;-77
2022/12/19 04:21:40;;;;;;;82.38;38.95;;;2.50;99.90;;;;;;4932246;29;20393;-75
2022/12/19 04:24:16;;;;;;;88.40;42.08;;;3.60;99.90;;;;;;4935671;29;20488;-75
2022/12/19 04:26:45;;;;;;;94.97;44.20;;;2.50;99.90;;;;;;4907593;29;20047;-75
2022/12/19 04:29:13;;;;;;;100.55;46.33;;;2.60;99.90;;;;;;4936075;29;20511;-74
2022/12/19 04:31:39;;;;;;;81.72;39.55;;;2.70;99.90;;;;;;4919918;29;20135;-76
2022/12/19 04:34:05;;;;;;;83.53;39.78;;;2.70;99.90;;;;;;4920059;29;20063;-76
2022/12/19 04:36:31;;;;;;;70.18;33.08;;;2.80;99.90;;;;;;4936258;29;20052;-76
2022/12/19 04:38:57;;;;;;;28.13;12.25;;;2.70;99.90;;;;;;4919511;29;20048;-78
2022/12/19 04:41:22;;;;;;;69.32;35.70;;;2.80;99.90;;;;;;4920003;29;20066;-77
2022/12/19 04:43:48;;;;;;;86.45;43.65;;;2.90;99.90;;;;;;4936377;29;20052;-74
2022/12/19 04:46:14;;;;;;;78.88;39.70;;;2.90;99.90;;;;;;4935892;29;20055;-77
2022/12/19 04:48:40;;;;;;;82.88;42.63;;;2.90;99.90;;;;;;4913118;29;20055;-76
2022/12/19 04:51:06;;;;;;;80.10;40.75;;;2.80;99.90;;;;;;4935178;29;20048;-76
2022/12/19 04:53:32;;;;;;;82.88;41.38;;;2.80;99.90;;;;;;4935127;29;20074;-76
2022/12/19 04:56:03;;;;;;;74.18;37.40;;;2.90;99.90;;;;;;4935733;29;20048;-76
2022/12/19 04:58:29;;;;;;;82.03;41.83;;;3.00;99.90;;;;;;4935103;29;20059;-75
2022/12/19 05:00:59;;;;;;;83.88;41.22;;;2.90;99.90;;;;;;4934954;29;20043;-76
2022/12/19 05:03:25;;;;;;;78.28;39.92;;;2.90;99.90;;;;;;4934902;29;20055;-75
2022/12/19 05:05:51;;;;;;;88.45;43.13;;;2.90;99.90;;;;;;4935091;29;20047;-76
2022/12/19 05:08:16;;;;;;;90.15;45.35;;;2.90;99.90;;;;;;4934862;29;20491;-75
2022/12/19 05:10:42;;;;;;;91.43;45.08;;;2.90;99.90;;;;;;4936504;29;20387;-76
2022/12/19 05:13:08;;;;;;;85.80;40.35;;;3.30;99.90;;;;;;4934611;29;20043;-75
2022/12/19 05:15:33;;;;;;;90.65;43.08;;;3.80;99.90;;;;;;4941111;29;20504;-75
2022/12/19 05:17:59;;;;;;;88.55;42.65;;;3.10;99.90;;;;;;4936403;29;20056;-76
2022/12/19 05:20:25;;;;;;;84.22;39.92;;;3.00;99.90;;;;;;4934388;29;20404;-77
2022/12/19 05:22:51;;;;;;;88.75;43.55;;;3.10;99.90;;;;;;4931772;29;20199;-77
2022/12/19 05:25:16;;;;;;;80.80;39.20;;;3.10;99.90;;;;;;4919223;29;20039;-76
2022/12/19 05:27:42;;;;;;;88.72;42.08;;;3.20;99.90;;;;;;4918124;29;20059;-75
2022/12/19 05:30:08;;;;;;;98.03;46.20;;;3.20;99.90;;;;;;4935225;29;20043;-76
2022/12/19 05:32:34;;;;;;;88.18;41.38;;;3.20;99.90;;;;;;4934991;29;20079;-77
2022/12/19 05:35:00;;;;;;;101.65;45.35;;;4.30;99.90;;;;;;4934421;29;20112;-76
2022/12/19 05:37:25;;;;;;;96.88;43.67;;;3.20;99.90;;;;;;4933607;29;20155;-77
2022/12/19 05:39:51;;;;;;;102.00;46.63;;;3.30;99.90;;;;;;4935077;29;20551;-77
2022/12/19 05:42:17;;;;;;;104.13;47.33;;;3.30;99.90;;;;;;4932113;29;20052;-77
2022/12/19 05:44:42;;;;;;;100.45;46.88;;;3.40;99.90;;;;;;4917390;29;20047;-78
2022/12/19 05:47:08;;;;;;;102.55;47.30;;;3.30;99.90;;;;;;4932090;29;20054;-76
2022/12/19 05:49:34;;;;;;;102.97;46.30;;;3.40;99.90;;;;;;4932191;29;20058;-77
2022/12/19 05:51:59;;;;;;;88.10;41.17;;;3.40;99.90;;;;;;4931267;29;20047;-78
2022/12/19 05:54:25;;;;;;;77.40;33.65;;;3.50;99.90;;;;;;4932183;29;20091;-79
2022/12/19 05:56:51;;;;;;;94.43;44.05;;;3.90;99.90;;;;;;4902823;29;20775;-74
2022/12/19 05:59:16;;;;;;;107.00;46.38;;;3.60;99.90;;;;;;4932654;29;20130;-76
2022/12/19 06:01:42;;;;;;;89.70;44.15;;;3.80;99.90;;;;;;4905642;29;20060;-75
2022/12/19 06:04:08;;;;;;;101.35;49.10;;;4.00;99.90;;;;;;4931145;29;20090;-76
2022/12/19 06:06:33;;;;;;;99.78;47.05;;;3.70;99.90;;;;;;4918733;29;20122;-74
2022/12/19 06:09:00;;;;;;;102.00;47.88;;;3.70;99.90;;;;;;4934931;29;20051;-75
2022/12/19 06:11:26;;;;;;;98.22;45.30;;;3.80;99.90;;;;;;4934250;29;20615;-76
2022/12/19 06:13:52;;;;;;;93.97;45.45;;;3.80;99.90;;;;;;4931271;29;20063;-74
2022/12/19 06:16:20;;;;;;;76.10;36.30;;;3.90;99.90;;;;;;4933900;29;20477;-76
2022/12/19 06:18:46;;;;;;;107.35;49.72;;;3.90;99.90;;;;;;4932294;29;20060;-76
2022/12/19 06:21:18;;;;;;;95.78;47.65;;;3.90;99.90;;;;;;4932566;29;20106;-73
2022/12/19 06:23:44;;;;;;;93.78;46.13;;;3.90;99.90;;;;;;4920281;29;20119;-76
2022/12/19 06:26:12;;;;;;;92.28;45.75;;;3.90;99.90;;;;;;4931511;29;20107;-73
2022/12/19 06:28:38;;;;;;;92.20;44.60;;;4.10;99.90;;;;;;4915964;29;20540;-74
2022/12/19 06:31:05;;;;;;;72.63;36.78;;;4.00;99.90;;;;;;4932731;29;20168;-76
2022/12/19 06:33:31;;;;;;;100.10;47.33;;;4.00;99.90;;;;;;4916854;29;20059;-76
2022/12/19 06:35:58;;;;;;;89.43;44.58;;;4.10;99.90;;;;;;4928856;29;20468;-73
2022/12/19 06:38:24;;;;;;;99.03;48.22;;;4.10;99.90;;;;;;4912487;29;20060;-75
2022/12/19 06:43:34;;;;;;;93.18;45.55;;;4.30;99.90;;;;;;4918246;29;20396;-75
2022/12/19 06:46:00;;;;;;;79.68;42.60;;;4.20;99.90;;;;;;4933816;29;20048;-75
2022/12/19 06:48:29;;;;;;;83.10;42.13;;;4.40;99.90;;;;;;4916350;29;20048;-73
2022/12/19 06:50:54;;;;;;;87.43;44.15;;;4.30;99.90;;;;;;4931659;29;20052;-74
2022/12/19 06:53:20;;;;;;;92.57;45.33;;;4.30;99.90;;;;;;4913224;29;20048;-74
2022/12/19 06:55:47;;;;;;;81.00;42.03;;;4.30;99.90;;;;;;4935373;29;20059;-77
2022/12/19 06:58:13;;;;;;;81.88;41.00;;;4.30;99.90;;;;;;4906088;29;20056;-74
2022/12/19 07:00:39;;;;;;;89.10;44.88;;;4.40;99.90;;;;;;4933164;29;20042;-74
2022/12/19 07:03:09;;;;;;;85.47;43.00;;;4.40;99.90;;;;;;4936181;29;20054;-76
2022/12/19 07:05:35;;;;;;;74.55;43.45;;;4.40;99.90;;;;;;4931971;29;20087;-73
2022/12/19 07:08:02;;;;;;;83.35;43.60;;;4.50;99.90;;;;;;4931291;29;20483;-78
2022/12/19 07:10:28;;;;;;;79.30;41.90;;;4.50;99.90;;;;;;4931560;29;20040;-78
2022/12/19 07:12:53;;;;;;;73.63;41.90;;;4.50;99.90;;;;;;4914876;29;20503;-76
2022/12/19 07:15:19;;;;;;;80.75;43.10;;;4.50;99.90;;;;;;4936255;29;20075;-76
2022/12/19 07:17:45;;;;;;;88.00;43.80;;;4.80;99.90;;;;;;4936150;29;20059;-77
2022/12/19 07:20:12;;;;;;;74.88;40.95;;;4.60;99.90;;;;;;4919425;29;20127;-76
2022/12/19 07:22:38;;;;;;;81.20;41.63;;;4.60;99.90;;;;;;4936806;29;20058;-77
2022/12/19 07:25:05;;;;;;;80.38;41.97;;;4.60;99.90;;;;;;4935460;29;20048;-76
2022/12/19 07:27:31;;;;;;;82.82;42.92;;;4.60;99.90;;;;;;4934258;29;20074;-75
2022/12/19 07:29:57;;;;;;;85.30;42.80;;;4.60;99.90;;;;;;4938104;29;20056;-77
2022/12/19 07:32:23;;;;;;;84.68;41.42;;;4.60;99.90;;;;;;4921227;29;20058;-77
2022/12/19 07:34:48;;;;;;;91.05;43.65;;;4.60;99.90;;;;;;4935747;29;20048;-77
2022/12/19 07:37:14;;;;;;;75.55;38.03;;;4.60;99.90;;;;;;4935813;29;20089;-78
2022/12/19 07:39:40;;;;;;;88.15;42.42;;;4.60;99.90;;;;;;4933580;29;20039;-78
2022/12/19 07:42:05;;;;;;;66.95;32.60;;;4.60;99.90;;;;;;4934264;29;20504;-78
2022/12/19 07:44:31;;;;;;;80.18;41.75;;;4.70;99.90;;;;;;4913296;29;20131;-78
2022/12/19 07:46:57;;;;;;;73.35;38.50;;;4.70;99.90;;;;;;4933058;29;20052;-76
2022/12/19 07:49:22;;;;;;;69.20;37.20;;;4.70;99.90;;;;;;4935836;29;20076;-78
2022/12/19 07:51:48;;;;;;;74.78;39.40;;;4.70;99.90;;;;;;4937402;29;20397;-81
2022/12/19 07:54:14;;;;;;;71.70;38.00;;;4.70;99.90;;;;;;4936816;29;20051;-78
2022/12/19 07:56:40;;;;;;;68.55;37.10;;;5.00;99.90;;;;;;4935893;29;20490;-73
2022/12/19 07:59:05;;;;;;;73.32;38.53;;;4.80;99.90;;;;;;4939240;29;20127;-77
2022/12/19 08:01:31;;;;;;;61.17;33.50;;;4.80;99.90;;;;;;4935853;29;20466;-76
2022/12/19 08:03:57;;;;;;;66.43;35.33;;;4.80;99.90;;;;;;4911835;29;20044;-77
2022/12/19 08:06:23;;;;;;;57.40;31.08;;;5.00;99.90;;;;;;4904598;29;20131;-77
2022/12/19 08:08:49;;;;;;;62.10;34.65;;;4.90;99.90;;;;;;4934856;29;20044;-76
2022/12/19 08:11:18;;;;;;;59.67;33.53;;;5.00;99.90;;;;;;4940665;29;20044;-76
2022/12/19 08:13:44;;;;;;;64.53;35.70;;;5.10;99.90;;;;;;4941565;29;20060;-77
2022/12/19 08:16:10;;;;;;;61.53;34.42;;;5.00;99.90;;;;;;4921920;29;20126;-76
2022/12/19 08:18:36;;;;;;;64.03;34.88;;;5.10;99.90;;;;;;4923227;29;20130;-79
2022/12/19 08:21:02;;;;;;;55.78;31.13;;;5.30;99.90;;;;;;4942335;29;20396;-77
2022/12/19 08:23:28;;;;;;;51.53;29.25;;;5.10;99.90;;;;;;4929652;28;20044;-78
2022/12/19 08:26:05;;;;;;;60.15;34.22;;;5.20;99.90;;;;;;4945035;29;20178;-78
2022/12/19 08:28:34;;;;;;;57.38;33.30;;;5.20;99.90;;;;;;4920258;29;20419;-78
2022/12/19 08:31:13;;;;;;;51.95;29.80;;;5.30;99.90;;;;;;4934004;29;20043;-78
2022/12/19 08:33:39;;;;;;;57.58;32.42;;;5.30;99.90;;;;;;4926330;29;20081;-77
2022/12/19 08:36:06;;;;;;;57.90;32.08;;;5.30;99.90;;;;;;4930980;29;20047;-75
2022/12/19 08:38:33;;;;;;;62.15;34.55;;;5.40;99.90;;;;;;4925880;29;20480;-79
2022/12/19 08:40:59;;;;;;;52.67;31.63;;;5.30;99.90;;;;;;4932999;29;20050;-77
2022/12/19 08:43:26;;;;;;;52.38;29.80;;;5.30;99.90;;;;;;4947008;29;20396;-78
2022/12/19 08:45:52;;;;;;;56.97;31.60;;;5.40;99.90;;;;;;4933528;29;20066;-76
2022/12/19 08:48:17;;;;;;;51.45;30.30;;;5.40;99.90;;;;;;4919921;29;20488;-76
2022/12/19 08:50:53;;;;;;;58.28;32.63;;;5.50;99.90;;;;;;4930681;29;20134;-78
2022/12/19 08:53:20;;;;;;;54.38;30.70;;;5.40;99.90;;;;;;4928020;29;20092;-76
2022/12/19 08:55:46;;;;;;;55.17;32.70;;;5.60;99.90;;;;;;4935159;29;20058;-76
2022/12/19 08:58:12;;;;;;;59.50;32.75;;;5.60;99.90;;;;;;4934892;29;20526;-75
2022/12/19 09:00:38;;;;;;;63.55;35.83;;;5.60;99.90;;;;;;4929889;29;20131;-77
2022/12/19 09:03:04;;;;;;;61.83;34.35;;;5.70;99.90;;;;;;4909997;29;20055;-76
2022/12/19 09:05:29;;;;;;;69.80;38.05;;;5.70;99.90;;;;;;4933318;29;20139;-76
2022/12/19 09:07:55;;;;;;;65.00;34.53;;;5.60;99.90;;;;;;4927744;29;20054;-75
2022/12/19 09:10:21;;;;;;;60.95;35.78;;;5.70;99.90;;;;;;4927877;29;20444;-77
2022/12/19 09:12:47;;;;;;;71.47;38.65;;;5.70;99.90;;;;;;4933659;29;20059;-78
2022/12/19 09:15:12;;;;;;;51.40;31.13;;;5.70;99.90;;;;;;4912432;29;20131;-76
2022/12/19 09:17:39;;;;;;;68.78;38.75;;;5.80;99.90;;;;;;4915919;29;20468;-75
2022/12/19 09:20:05;;;;;;;67.43;38.33;;;5.80;99.90;;;;;;4932009;29;20126;-77
2022/12/19 09:22:32;;;;;;;63.50;37.28;;;5.80;99.90;;;;;;4919953;29;20060;-77
2022/12/19 09:24:57;;;;;;;63.25;37.00;;;6.90;99.90;;;;;;4920750;29;20103;-78
2022/12/19 09:27:23;;;;;;;65.53;37.63;;;5.90;99.90;;;;;;4943333;29;20055;-76
2022/12/19 09:29:49;;;;;;;71.20;39.55;;;6.00;99.90;;;;;;4897972;28;20062;-80
2022/12/19 09:32:15;;;;;;;67.47;36.35;;;5.90;99.90;;;;;;4946461;29;20110;-75
2022/12/19 09:34:40;;;;;;;66.78;38.15;;;6.20;99.90;;;;;;4949514;28;20055;-76
2022/12/19 09:37:07;;;;;;;62.55;37.38;;;6.00;99.90;;;;;;4941394;29;20445;-76
2022/12/19 09:39:34;;;;;;;71.80;41.92;;;6.00;99.90;;;;;;4920942;29;20051;-75
2022/12/19 09:42:20;;;;;;;65.95;38.53;;;6.00;99.90;;;;;;4942305;29;20062;-73
2022/12/19 09:45:00;;;;;;;67.05;39.20;;;6.10;99.90;;;;;;4943469;29;20142;-75
2022/12/19 09:47:29;;;;;;;71.18;39.92;;;6.10;99.90;;;;;;4943669;29;20058;-77
2022/12/19 09:49:57;;;;;;;62.17;37.75;;;6.10;99.90;;;;;;4942965;29;20522;-76
2022/12/19 09:52:34;;;;;;;60.67;37.88;;;6.20;99.90;;;;;;4940889;29;20060;-77
2022/12/19 09:55:14;;;;;;;53.70;32.28;;;6.20;99.90;;;;;;4936107;29;20055;-78
2022/12/19 09:58:18;;;;;;;60.97;33.20;;;6.20;99.90;;;;;;4941483;29;20051;-77
2022/12/19 10:00:56;;;;;;;59.50;33.92;;;6.30;99.90;;;;;;4941580;29;20444;-76
2022/12/19 10:03:40;;;;;;;62.13;37.50;;;6.30;99.90;;;;;;4940935;29;20055;-77
2022/12/19 10:06:28;;;;;;;60.53;34.97;;;6.30;99.90;;;;;;4920193;29;20503;-76
2022/12/19 10:08:53;;;;;;;59.95;34.20;;;6.30;99.90;;;;;;4940569;29;20052;-75
2022/12/19 10:11:22;;;;;;;50.58;31.20;;;6.30;99.90;;;;;;4945204;29;20050;-76
2022/12/19 10:14:13;;;;;;;60.30;35.78;;;6.40;99.90;;;;;;4949222;29;20059;-78
2022/12/19 10:17:40;;;;;;;53.95;34.17;;;6.40;99.90;;;;;;4948634;29;20134;-76
2022/12/19 10:20:35;;;;;;;53.25;33.22;;;6.40;99.90;;;;;;4910392;29;20095;-75
2022/12/19 10:23:34;;;;;;;45.67;28.30;;;6.50;99.90;;;;;;4907504;29;20274;-76
2022/12/19 10:26:17;;;;;;;49.78;30.85;;;6.50;99.90;;;;;;4945150;29;20097;-76
2022/12/19 10:29:31;;;;;;;51.22;31.27;;;6.50;99.90;;;;;;4944370;29;20048;-76
2022/12/19 10:32:22;;;;;;;48.97;30.70;;;6.60;99.90;;;;;;4916081;29;20063;-76
2022/12/19 10:34:51;;;;;;;38.28;25.42;;;6.50;99.90;;;;;;4927488;29;20048;-75
2022/12/19 10:37:34;;;;;;;41.35;27.10;;;6.60;99.90;;;;;;4937278;29;20585;-75
2022/12/19 10:40:03;;;;;;;40.47;27.60;;;6.60;99.90;;;;;;4940307;29;20051;-77
2022/12/19 10:42:52;;;;;;;37.78;24.38;;;6.70;99.90;;;;;;4942742;29;20129;-75
2022/12/19 10:45:21;;;;;;;43.75;29.13;;;6.70;99.90;;;;;;4941124;29;20464;-75
2022/12/19 10:47:55;;;;;;;40.42;27.60;;;6.70;99.90;;;;;;4943136;28;20051;-75
2022/12/19 10:50:24;;;;;;;37.85;26.48;;;6.80;99.90;;;;;;4942662;29;20312;-76
2022/12/19 10:53:06;;;;;;;41.67;28.15;;;6.80;99.90;;;;;;4941405;29;20506;-78
2022/12/19 10:55:36;;;;;;;35.45;23.65;;;6.80;99.90;;;;;;4937672;29;20055;-77
2022/12/19 10:58:17;;;;;;;38.22;25.98;;;6.80;99.90;;;;;;4944525;29;20514;-74
2022/12/19 11:00:56;;;;;;;41.50;26.73;;;6.80;99.90;;;;;;4935246;29;20051;-76
2022/12/19 11:03:22;;;;;;;39.95;27.20;;;6.90;99.90;;;;;;4943741;29;20503;-74
2022/12/19 11:05:51;;;;;;;36.00;23.65;;;6.90;99.90;;;;;;4946953;29;20047;-75
2022/12/19 11:08:21;;;;;;;39.85;26.02;;;6.90;99.90;;;;;;4946232;29;20141;-74
2022/12/19 11:11:02;;;;;;;38.90;26.35;;;6.90;99.90;;;;;;4944939;29;20128;-76
2022/12/19 11:13:44;;;;;;;42.03;27.73;;;7.00;99.90;;;;;;4939084;29;20496;-75
2022/12/19 11:16:11;;;;;;;39.25;25.90;;;6.90;99.90;;;;;;4947977;29;20051;-75
2022/12/19 11:18:44;;;;;;;39.53;26.60;;;6.90;99.90;;;;;;4925631;29;20044;-73
2022/12/19 11:21:28;;;;;;;38.85;25.27;;;7.00;99.90;;;;;;4944899;28;20113;-77
2022/12/19 11:23:59;;;;;;;37.50;25.52;;;7.10;99.90;;;;;;4942293;28;20530;-74
2022/12/19 11:26:45;;;;;;;35.88;25.15;;;7.00;99.90;;;;;;4943331;28;20043;-76
2022/12/19 11:29:38;;;;;;;37.65;25.60;;;7.00;99.90;;;;;;4949112;28;20143;-75
2022/12/19 11:32:04;;;;;;;32.60;22.08;;;7.00;99.90;;;;;;4949561;28;20047;-75
2022/12/19 11:34:34;;;;;;;36.58;24.90;;;7.00;99.90;;;;;;4945474;28;20402;-73
2022/12/19 11:37:31;;;;;;;37.38;24.02;;;7.00;99.90;;;;;;4947077;28;20044;-75
2022/12/19 11:40:01;;;;;;;32.55;22.33;;;7.10;99.90;;;;;;4945015;28;20047;-77
2022/12/19 11:42:43;;;;;;;36.47;23.95;;;7.30;99.90;;;;;;4944830;28;20404;-74
2022/12/19 11:45:39;;;;;;;36.65;24.40;;;7.10;99.90;;;;;;4945301;28;20439;-76
2022/12/19 11:48:30;;;;;;;33.13;22.73;;;7.10;99.90;;;;;;4949102;28;20179;-76
2022/12/19 11:51:05;;;;;;;39.28;25.77;;;7.20;99.90;;;;;;4949838;28;20104;-75
2022/12/19 11:53:52;;;;;;;35.65;24.77;;;7.20;99.90;;;;;;4961795;28;20050;-77
2022/12/19 11:56:22;;;;;;;33.38;21.80;;;7.20;99.90;;;;;;4948961;28;20141;-75
2022/12/19 11:58:51;;;;;;;38.85;27.00;;;7.20;99.90;;;;;;4946635;28;20500;-76
2022/12/19 12:01:46;;;;;;;35.15;25.08;;;7.20;99.90;;;;;;4951378;28;20043;-74
2022/12/19 12:04:42;;;;;;;36.13;25.88;;;7.20;99.90;;;;;;4945835;28;20078;-76
2022/12/19 12:07:08;;;;;;;31.45;21.95;;;7.20;99.90;;;;;;4960524;28;20051;-73
2022/12/19 12:09:54;;;;;;;39.10;25.90;;;7.30;99.90;;;;;;4968581;28;20066;-76
2022/12/19 12:12:32;;;;;;;37.10;24.65;;;7.20;99.90;;;;;;4944848;28;20053;-76
2022/12/19 12:15:25;;;;;;;32.13;22.67;;;8.10;99.90;;;;;;4951574;28;20129;-77
2022/12/19 12:18:32;;;;;;;30.38;21.67;;;7.30;99.90;;;;;;4966125;28;20364;-75
2022/12/19 12:21:16;;;;;;;30.45;21.98;;;7.30;99.90;;;;;;4927902;28;20059;-76
2022/12/19 12:23:48;;;;;;;34.80;23.30;;;7.40;99.90;;;;;;4943292;28;20081;-75
2022/12/19 12:26:28;;;;;;;30.50;21.65;;;7.40;99.90;;;;;;4964340;28;20051;-74
2022/12/19 12:29:23;;;;;;;30.40;22.45;;;7.40;99.90;;;;;;4947883;28;20376;-74
2022/12/19 12:32:11;;;;;;;28.42;21.25;;;7.40;99.90;;;;;;4961505;28;20403;-75
2022/12/19 12:34:58;;;;;;;27.25;21.42;;;7.40;99.90;;;;;;4950017;28;20042;-77
2022/12/19 12:37:47;;;;;;;30.42;22.35;;;7.50;99.90;;;;;;4951149;28;20042;-76
2022/12/19 12:40:39;;;;;;;28.50;20.85;;;7.50;99.90;;;;;;4947639;28;20050;-74
2022/12/19 12:43:41;;;;;;;33.00;22.63;;;7.50;99.90;;;;;;4949040;28;20129;-76
2022/12/19 12:46:21;;;;;;;29.63;22.10;;;7.50;99.90;;;;;;4942104;28;20164;-75
2022/12/19 12:49:00;;;;;;;27.67;20.48;;;7.60;99.90;;;;;;4950631;28;20081;-75
2022/12/19 12:51:27;;;;;;;29.42;21.50;;;7.90;99.90;;;;;;4950553;28;20051;-77
2022/12/19 12:54:06;;;;;;;26.67;18.92;;;7.60;99.90;;;;;;4927225;28;20143;-75
2022/12/19 12:56:33;;;;;;;27.15;19.42;;;7.60;99.90;;;;;;4962147;28;20042;-75
2022/12/19 12:59:21;;;;;;;25.85;19.33;;;7.70;99.90;;;;;;4950865;28;20135;-74
2022/12/19 13:02:12;;;;;;;27.83;18.75;;;7.70;99.90;;;;;;4947140;28;20043;-75
2022/12/19 13:04:59;;;;;;;21.77;16.25;;;7.60;99.90;;;;;;4944129;28;20054;-77
2022/12/19 13:07:42;;;;;;;21.58;15.35;;;7.70;99.90;;;;;;4948519;28;20045;-74